createdAt,value
2022-12-28T00:02:14.416Z,88.82
2022-12-28T00:04:41.151Z,89.03
2022-12-28T00:07:07.974Z,88.87
2022-12-28T00:09:34.733Z,89.11
2022-12-28T00:12:01.360Z,89.06
2022-12-28T00:14:28.063Z,88.35
2022-12-28T00:16:54.884Z,88.58
2022-12-28T00:19:22.477Z,88.10
2022-12-28T00:21:49.209Z,87.04
2022-12-28T00:24:18.912Z,87.88
2022-12-28T00:26:45.635Z,88.20
2022-12-28T00:29:12.343Z,87.36
2022-12-28T00:31:39.050Z,89.68
2022-12-28T00:34:05.967Z,90.02
2022-12-28T00:37:10.803Z,89.46
2022-12-28T00:39:22.318Z,87.89
2022-12-28T00:41:49.077Z,88.64
2022-12-28T00:44:15.742Z,88.39
2022-12-28T00:46:42.463Z,88.69
2022-12-28T00:49:09.093Z,87.98
2022-12-28T00:51:35.784Z,88.28
2022-12-28T00:54:02.454Z,89.01
2022-12-28T00:56:29.112Z,90.24
2022-12-28T00:58:57.415Z,90.49
2022-12-28T01:01:24.194Z,89.09
2022-12-28T01:03:51.111Z,88.30
2022-12-28T01:06:18.867Z,88.68
2022-12-28T01:08:45.659Z,88.76
2022-12-28T01:11:23.221Z,89.62
2022-12-28T01:13:50.655Z,89.40
2022-12-28T01:16:22.087Z,89.87
2022-12-28T01:18:48.878Z,89.48
2022-12-28T01:21:17.048Z,88.43
2022-12-28T01:23:44.743Z,89.01
2022-12-28T01:26:11.380Z,89.55
2022-12-28T01:28:37.977Z,90.14
2022-12-28T01:31:09.000Z,88.85
2022-12-28T01:33:35.722Z,87.72
2022-12-28T01:36:13.611Z,88.39
2022-12-28T01:38:40.255Z,88.82
2022-12-28T01:41:08.026Z,88.08
2022-12-28T01:43:46.244Z,88.34
2022-12-28T01:46:18.083Z,87.15
2022-12-28T01:49:05.908Z,86.05
2022-12-28T01:51:35.072Z,86.33
2022-12-28T01:54:01.768Z,85.51
2022-12-28T01:56:28.443Z,86.11
2022-12-28T01:58:55.466Z,85.66
2022-12-28T02:01:22.128Z,85.68
2022-12-28T02:03:48.792Z,85.03
2022-12-28T02:06:15.506Z,85.35
2022-12-28T02:08:50.671Z,85.55
2022-12-28T02:11:18.657Z,86.12
2022-12-28T02:13:46.796Z,85.54
2022-12-28T02:16:13.597Z,85.43
2022-12-28T02:18:40.742Z,85.04
2022-12-28T02:21:14.217Z,86.41
2022-12-28T02:23:43.641Z,87.25
2022-12-28T02:26:19.096Z,86.71
2022-12-28T02:29:10.236Z,86.48
2022-12-28T02:32:17.239Z,84.91
2022-12-28T02:34:48.918Z,83.79
2022-12-28T02:37:24.649Z,83.88
2022-12-28T02:39:57.241Z,84.97
2022-12-28T02:42:24.332Z,84.25
2022-12-28T02:45:09.591Z,85.59
2022-12-28T02:47:54.972Z,85.86
2022-12-28T02:50:21.819Z,86.02
2022-12-28T02:53:00.677Z,86.70
2022-12-28T02:56:10.174Z,86.09
2022-12-28T02:58:47.827Z,85.98
2022-12-28T03:01:33.009Z,86.24
2022-12-28T03:04:14.896Z,85.55
2022-12-28T03:07:19.033Z,85.59
2022-12-28T03:10:03.994Z,85.53
2022-12-28T03:13:34.170Z,85.18
2022-12-28T03:16:07.101Z,85.71
2022-12-28T03:18:52.287Z,85.11
2022-12-28T03:21:37.396Z,86.04
2022-12-28T03:24:22.635Z,85.55
2022-12-28T03:27:09.392Z,85.28
2022-12-28T03:30:02.022Z,85.89
2022-12-28T03:32:28.917Z,86.03
2022-12-28T03:34:55.589Z,86.23
2022-12-28T03:37:28.223Z,86.25
2022-12-28T03:40:03.402Z,86.62
2022-12-28T03:43:06.905Z,86.63
2022-12-28T03:45:46.389Z,86.02
2022-12-28T03:48:14.035Z,85.82
2022-12-28T03:50:41.657Z,86.00
2022-12-28T03:53:08.884Z,85.71
2022-12-28T03:55:37.995Z,84.66
2022-12-28T03:58:05.544Z,84.27
2022-12-28T04:00:32.621Z,85.22
2022-12-28T04:02:59.301Z,84.45
2022-12-28T04:05:25.944Z,84.71
2022-12-28T04:07:52.616Z,83.61
2022-12-28T04:10:19.289Z,83.75
2022-12-28T04:12:45.929Z,82.82
2022-12-28T04:15:12.591Z,82.99
2022-12-28T04:17:39.335Z,83.75
2022-12-28T04:20:06.557Z,83.26
2022-12-28T04:22:33.224Z,83.39
2022-12-28T04:24:59.949Z,84.06
2022-12-28T04:27:26.580Z,83.44
2022-12-28T04:29:53.182Z,82.99
2022-12-28T04:32:19.878Z,82.26
2022-12-28T04:34:48.729Z,82.72
2022-12-28T04:37:15.818Z,83.12
2022-12-28T04:39:55.665Z,83.57
2022-12-28T04:42:25.176Z,83.26
2022-12-28T04:44:51.868Z,83.89
2022-12-28T04:47:18.471Z,84.50
2022-12-28T04:49:45.241Z,84.44
2022-12-28T04:52:11.844Z,84.91
2022-12-28T04:54:38.545Z,86.44
2022-12-28T04:57:05.179Z,87.03
2022-12-28T04:59:31.763Z,86.12
2022-12-28T05:01:58.426Z,86.35
2022-12-28T05:04:25.276Z,86.86
2022-12-28T05:06:51.935Z,85.23
2022-12-28T05:09:19.507Z,85.68
2022-12-28T05:11:46.856Z,86.29
2022-12-28T05:14:13.572Z,86.43
2022-12-28T05:16:40.330Z,86.74
2022-12-28T05:19:07.030Z,85.91
2022-12-28T05:21:33.715Z,88.08
2022-12-28T05:24:00.648Z,87.84
2022-12-28T05:26:29.189Z,87.92
2022-12-28T05:28:56.274Z,86.56
2022-12-28T05:31:23.187Z,86.43
2022-12-28T05:33:49.999Z,86.82
2022-12-28T05:36:18.285Z,87.81
2022-12-28T05:38:45.047Z,87.32
2022-12-28T05:41:20.381Z,85.98
2022-12-28T05:43:47.319Z,86.05
2022-12-28T05:46:16.487Z,85.86
2022-12-28T05:48:43.591Z,85.42
2022-12-28T05:51:12.057Z,83.81
2022-12-28T05:53:38.765Z,83.99
2022-12-28T05:56:14.603Z,84.00
2022-12-28T05:58:42.496Z,83.51
2022-12-28T06:01:19.834Z,83.93
2022-12-28T06:03:47.747Z,84.46
2022-12-28T06:06:16.046Z,84.58
2022-12-28T06:08:42.971Z,83.65
2022-12-28T06:11:11.426Z,84.30
2022-12-28T06:13:38.168Z,85.08
2022-12-28T06:16:09.243Z,85.27
2022-12-28T06:18:36.045Z,84.56
2022-12-28T06:21:29.478Z,84.02
2022-12-28T06:23:57.845Z,84.83
2022-12-28T06:26:24.717Z,84.60
2022-12-28T06:28:51.566Z,84.73
2022-12-28T06:31:29.197Z,84.79
2022-12-28T06:33:57.618Z,84.11
2022-12-28T06:36:26.103Z,84.10
2022-12-28T06:38:53.611Z,83.51
2022-12-28T06:41:20.648Z,83.75
2022-12-28T06:43:47.738Z,84.40
2022-12-28T06:46:15.427Z,83.39
2022-12-28T06:48:42.336Z,82.22
2022-12-28T06:51:14.654Z,81.63
2022-12-28T06:53:41.684Z,81.70
2022-12-28T06:56:16.113Z,81.97
2022-12-28T06:58:42.909Z,81.58
2022-12-28T07:01:14.015Z,81.98
2022-12-28T07:03:41.249Z,81.97
2022-12-28T07:06:07.984Z,83.05
2022-12-28T07:08:34.676Z,82.78
2022-12-28T07:11:12.490Z,82.82
2022-12-28T07:13:39.196Z,83.32
2022-12-28T07:16:07.642Z,83.17
2022-12-28T07:18:34.403Z,83.70
2022-12-28T07:21:06.027Z,82.26
2022-12-28T07:23:32.688Z,82.34
2022-12-28T07:26:07.951Z,82.52
2022-12-28T07:28:37.371Z,82.31
2022-12-28T07:31:14.447Z,82.70
2022-12-28T07:33:41.448Z,82.92
2022-12-28T07:36:09.158Z,81.64
2022-12-28T07:38:35.896Z,81.47
2022-12-28T07:41:18.872Z,81.79
2022-12-28T07:43:45.486Z,82.34
2022-12-28T07:46:23.285Z,82.39
2022-12-28T07:48:50.297Z,82.80
2022-12-28T07:51:19.007Z,82.55
2022-12-28T07:53:46.747Z,81.48
2022-12-28T07:56:13.507Z,81.64
2022-12-28T08:01:10.682Z,81.65
2022-12-28T08:03:37.617Z,82.59
2022-12-28T08:06:11.312Z,82.14
2022-12-28T08:08:39.043Z,82.57
2022-12-28T08:11:06.745Z,81.76
2022-12-28T08:13:34.679Z,80.43
2022-12-28T08:16:01.462Z,81.13
2022-12-28T08:18:28.244Z,79.88
2022-12-28T08:20:54.909Z,79.09
2022-12-28T08:23:21.710Z,79.54
2022-12-28T08:25:48.445Z,79.67
2022-12-28T08:28:15.114Z,78.67
2022-12-28T08:30:41.835Z,78.93
2022-12-28T08:33:08.483Z,79.26
2022-12-28T08:35:35.145Z,79.03
2022-12-28T08:38:01.871Z,79.00
2022-12-28T08:40:30.043Z,79.45
2022-12-28T08:42:58.916Z,79.83
2022-12-28T08:45:26.313Z,79.56
2022-12-28T08:47:53.213Z,78.74
2022-12-28T08:50:27.979Z,77.69
2022-12-28T08:52:58.055Z,77.47
2022-12-28T08:55:24.631Z,77.48
2022-12-28T08:57:51.212Z,77.19
2022-12-28T09:00:18.164Z,78.20
2022-12-28T09:02:44.847Z,77.56
2022-12-28T09:05:11.506Z,77.16
2022-12-28T09:08:37.096Z,77.50
2022-12-28T09:11:04.233Z,78.29
2022-12-28T09:13:32.493Z,79.53
2022-12-28T09:16:01.027Z,79.11
2022-12-28T09:18:27.751Z,78.40
2022-12-28T09:20:54.461Z,78.42
2022-12-28T09:23:21.135Z,77.96
2022-12-28T09:25:47.815Z,76.49
2022-12-28T09:28:14.687Z,75.75
2022-12-28T09:30:41.380Z,75.91
2022-12-28T09:33:26.533Z,75.12
2022-12-28T09:35:59.637Z,74.92
2022-12-28T09:38:26.374Z,73.81
2022-12-28T09:40:52.982Z,72.70
2022-12-28T09:43:19.761Z,72.76
2022-12-28T09:45:46.384Z,73.26
2022-12-28T09:48:14.857Z,73.22
2022-12-28T09:50:41.984Z,72.34
2022-12-28T09:53:29.365Z,71.55
2022-12-28T09:56:05.010Z,69.57
2022-12-28T09:58:33.140Z,68.98
2022-12-28T10:01:00.727Z,69.56
2022-12-28T10:03:40.577Z,69.32
2022-12-28T10:06:15.326Z,67.71
2022-12-28T10:08:46.940Z,68.04
2022-12-28T10:11:17.241Z,67.80
2022-12-28T10:13:59.191Z,67.99
2022-12-28T10:16:27.907Z,68.08
2022-12-28T10:18:54.753Z,69.36
2022-12-28T10:21:26.833Z,68.08
2022-12-28T10:26:45.122Z,66.18
2022-12-28T10:29:22.842Z,66.08
2022-12-28T10:32:06.723Z,67.55
2022-12-28T10:34:34.679Z,63.63
2022-12-28T10:37:06.215Z,64.31
2022-12-28T10:39:40.874Z,64.41
2022-12-28T10:42:20.852Z,64.20
2022-12-28T10:44:48.521Z,64.35
2022-12-28T10:47:28.419Z,63.47
2022-12-28T10:50:18.873Z,63.09
2022-12-28T10:52:41.757Z,63.62
2022-12-28T10:55:31.130Z,62.01
2022-12-28T10:58:31.116Z,62.09
2022-12-28T11:01:04.820Z,62.31
2022-12-28T11:03:35.809Z,62.87
2022-12-28T11:06:09.705Z,62.50
2022-12-28T11:08:37.106Z,62.55
2022-12-28T11:11:03.871Z,62.16
2022-12-28T11:13:30.583Z,63.57
2022-12-28T11:15:57.378Z,64.15
2022-12-28T11:18:24.100Z,63.64
2022-12-28T11:20:51.896Z,61.92
2022-12-28T11:23:20.441Z,61.97
2022-12-28T11:25:47.059Z,59.17
2022-12-28T11:28:16.249Z,59.61
2022-12-28T11:30:46.274Z,57.33
2022-12-28T11:33:38.219Z,55.45
2022-12-28T11:36:09.876Z,54.70
2022-12-28T11:38:41.025Z,56.32
2022-12-28T11:41:23.180Z,54.62
2022-12-28T11:43:53.428Z,55.28
2022-12-28T11:46:22.742Z,53.95
2022-12-28T11:49:01.629Z,54.91
2022-12-28T11:51:37.655Z,54.82
2022-12-28T11:54:06.083Z,54.90
2022-12-28T11:56:44.824Z,54.13
2022-12-28T11:59:32.220Z,53.95
2022-12-28T12:02:08.323Z,52.84
2022-12-28T12:04:40.121Z,53.31
2022-12-28T12:07:08.273Z,54.67
2022-12-28T12:09:38.597Z,54.85
2022-12-28T12:12:17.708Z,54.11
2022-12-28T12:14:49.786Z,51.56
2022-12-28T12:17:22.827Z,51.26
2022-12-28T12:19:52.281Z,50.93
2022-12-28T12:22:22.132Z,53.22
2022-12-28T12:24:54.517Z,51.15
2022-12-28T12:27:32.473Z,53.71
2022-12-28T12:30:06.927Z,51.45
2022-12-28T12:32:54.632Z,49.91
2022-12-28T12:35:28.313Z,48.79
2022-12-28T12:37:54.923Z,47.69
2022-12-28T12:40:37.275Z,49.82
2022-12-28T12:43:30.118Z,48.96
2022-12-28T12:46:10.990Z,51.77
2022-12-28T12:48:49.792Z,49.42
2022-12-28T12:51:25.285Z,50.19
2022-12-28T12:54:07.272Z,48.86
2022-12-28T12:57:01.404Z,47.20
2022-12-28T12:59:49.483Z,48.30
2022-12-28T13:02:34.892Z,47.99
2022-12-28T13:05:02.629Z,45.78
2022-12-28T13:07:29.238Z,47.29
2022-12-28T13:09:57.894Z,47.11
2022-12-28T13:12:24.518Z,46.60
2022-12-28T13:15:01.216Z,48.73
2022-12-28T13:17:28.218Z,46.71
2022-12-28T13:20:26.261Z,48.34
2022-12-28T13:22:53.007Z,50.29
2022-12-28T13:25:29.788Z,50.90
2022-12-28T13:27:57.227Z,52.65
2022-12-28T13:30:24.376Z,52.01
2022-12-28T13:32:56.130Z,52.26
2022-12-28T13:35:33.044Z,52.43
2022-12-28T13:38:08.677Z,53.94
2022-12-28T13:40:35.496Z,53.32
2022-12-28T13:43:21.857Z,54.42
2022-12-28T13:45:52.075Z,53.16
2022-12-28T13:48:19.363Z,53.72
2022-12-28T13:50:46.169Z,54.21
2022-12-28T13:53:14.308Z,54.90
2022-12-28T13:56:14.467Z,54.58
2022-12-28T13:58:48.067Z,54.70
2022-12-28T14:01:16.916Z,54.55
2022-12-28T14:03:46.486Z,54.51
2022-12-28T14:06:14.455Z,55.04
2022-12-28T14:08:42.015Z,56.39
2022-12-28T14:11:08.849Z,58.10
2022-12-28T14:13:36.078Z,59.95
2022-12-28T14:16:03.046Z,60.18
2022-12-28T14:18:30.258Z,60.75
2022-12-28T14:20:58.157Z,61.39
2022-12-28T14:23:29.039Z,63.04
2022-12-28T14:25:57.864Z,63.83
2022-12-28T14:28:37.701Z,63.76
2022-12-28T14:31:05.321Z,63.83
2022-12-28T14:33:34.653Z,63.81
2022-12-28T14:36:03.114Z,64.35
2022-12-28T14:38:40.491Z,64.72
2022-12-28T14:41:07.189Z,65.41
2022-12-28T14:43:34.657Z,65.92
2022-12-28T14:46:34.587Z,65.35
2022-12-28T14:49:21.626Z,65.76
2022-12-28T14:51:48.361Z,66.04
2022-12-28T14:54:22.050Z,65.52
2022-12-28T14:56:53.789Z,66.92
2022-12-28T14:59:38.626Z,67.18
2022-12-28T15:02:05.457Z,68.05
2022-12-28T15:04:40.010Z,68.59
2022-12-28T15:07:08.053Z,69.16
2022-12-28T15:09:34.754Z,69.74
2022-12-28T15:12:15.720Z,70.16
2022-12-28T15:14:44.579Z,69.99
2022-12-28T15:17:11.347Z,69.65
2022-12-28T15:19:37.979Z,69.84
2022-12-28T15:22:05.229Z,70.03
2022-12-28T15:24:34.328Z,69.80
2022-12-28T15:27:04.967Z,70.91
2022-12-28T15:30:03.796Z,70.52
2022-12-28T15:32:18.508Z,71.33
2022-12-28T15:34:45.200Z,72.05
2022-12-28T15:37:11.852Z,71.90
2022-12-28T15:39:38.455Z,72.34
2022-12-28T15:42:05.177Z,72.80
2022-12-28T15:44:31.810Z,72.60
2022-12-28T15:46:58.546Z,72.91
2022-12-28T15:49:25.177Z,72.80
2022-12-28T15:51:51.876Z,73.94
2022-12-28T15:54:18.945Z,73.82
2022-12-28T15:56:52.494Z,74.23
2022-12-28T15:59:19.459Z,74.64
2022-12-28T16:01:47.393Z,74.97
2022-12-28T16:04:14.262Z,74.26
2022-12-28T16:06:44.640Z,74.12
2022-12-28T16:09:12.456Z,74.70
2022-12-28T16:11:39.141Z,75.64
2022-12-28T16:14:06.666Z,75.56
2022-12-28T16:16:38.003Z,75.01
2022-12-28T16:19:04.900Z,75.44
2022-12-28T16:21:31.514Z,75.95
2022-12-28T16:23:59.224Z,75.97
2022-12-28T16:26:26.015Z,76.32
2022-12-28T16:28:52.736Z,76.49
2022-12-28T16:31:30.445Z,76.00
2022-12-28T16:34:00.988Z,76.65
2022-12-28T16:36:27.817Z,76.93
2022-12-28T16:38:54.813Z,77.57
2022-12-28T16:41:21.532Z,77.51
2022-12-28T16:43:48.568Z,76.44
2022-12-28T16:46:15.371Z,77.00
2022-12-28T16:48:42.071Z,76.65
2022-12-28T16:51:08.872Z,77.16
2022-12-28T16:53:36.815Z,77.17
2022-12-28T16:56:04.686Z,77.07
2022-12-28T16:58:31.333Z,75.54
2022-12-28T17:00:58.249Z,75.69
2022-12-28T17:03:25.597Z,75.65
2022-12-28T17:05:52.558Z,75.27
2022-12-28T17:08:19.436Z,75.28
2022-12-28T17:10:46.535Z,76.01
2022-12-28T17:13:13.195Z,75.81
2022-12-28T17:15:39.946Z,75.43
2022-12-28T17:18:06.924Z,75.58
2022-12-28T17:20:36.932Z,75.33
2022-12-28T17:23:03.969Z,76.41
2022-12-28T17:25:31.929Z,75.43
2022-12-28T17:27:58.932Z,75.28
2022-12-28T17:30:26.559Z,75.86
2022-12-28T17:32:53.441Z,74.76
2022-12-28T17:35:20.071Z,74.94
2022-12-28T17:37:46.656Z,75.97
2022-12-28T17:40:13.405Z,74.84
2022-12-28T17:42:40.137Z,74.92
2022-12-28T17:45:11.514Z,75.26
2022-12-28T17:47:38.768Z,74.91
2022-12-28T17:50:06.408Z,75.02
2022-12-28T17:52:33.061Z,74.68
2022-12-28T17:54:59.760Z,75.84
2022-12-28T17:57:26.403Z,75.42
2022-12-28T17:59:53.084Z,76.03
2022-12-28T18:02:19.811Z,77.23
2022-12-28T18:04:46.637Z,77.58
2022-12-28T18:07:13.326Z,77.86
2022-12-28T18:09:39.916Z,77.47
2022-12-28T18:12:06.637Z,77.36
2022-12-28T18:14:33.466Z,78.44
2022-12-28T18:17:00.287Z,78.43
2022-12-28T18:19:26.920Z,78.76
2022-12-28T18:21:53.625Z,79.23
2022-12-28T18:24:21.090Z,79.12
2022-12-28T18:26:48.074Z,79.89
2022-12-28T18:29:14.850Z,79.15
2022-12-28T18:31:41.608Z,80.01
2022-12-28T18:34:08.514Z,80.45
2022-12-28T18:36:35.273Z,80.18
2022-12-28T18:39:02.885Z,79.88
2022-12-28T18:41:33.982Z,80.34
2022-12-28T18:44:02.983Z,80.34
2022-12-28T18:46:29.964Z,80.89
2022-12-28T18:48:56.990Z,81.52
2022-12-28T18:51:23.605Z,80.53
2022-12-28T18:53:50.971Z,80.34
2022-12-28T18:56:21.270Z,80.68
2022-12-28T18:58:55.293Z,81.18
2022-12-28T19:04:12.897Z,80.27
2022-12-28T19:06:39.972Z,80.16
2022-12-28T19:09:07.093Z,79.65
2022-12-28T19:11:34.408Z,79.00
2022-12-28T19:14:05.185Z,79.40
2022-12-28T19:16:32.516Z,79.48
2022-12-28T19:19:02.535Z,80.05
2022-12-28T19:21:33.018Z,80.69
2022-12-28T19:24:04.612Z,81.43
2022-12-28T19:26:31.835Z,81.08
2022-12-28T19:28:58.499Z,80.36
2022-12-28T19:31:25.241Z,80.45
2022-12-28T19:33:52.022Z,81.28
2022-12-28T19:36:18.705Z,80.87
2022-12-28T19:38:45.621Z,80.78
2022-12-28T19:41:16.343Z,80.77
2022-12-28T19:43:43.523Z,79.24
2022-12-28T19:46:15.127Z,80.40
2022-12-28T19:48:41.889Z,80.75
2022-12-28T19:51:08.575Z,80.97
2022-12-28T19:53:35.274Z,80.15
2022-12-28T19:56:05.765Z,80.88
2022-12-28T19:58:33.159Z,81.70
2022-12-28T20:01:07.407Z,80.86
2022-12-28T20:03:34.500Z,81.54
2022-12-28T20:06:21.845Z,81.71
2022-12-28T20:08:49.804Z,82.24
2022-12-28T20:11:16.895Z,82.60
2022-12-28T20:13:44.727Z,82.25
2022-12-28T20:16:11.509Z,82.63
2022-12-28T20:18:38.191Z,82.32
2022-12-28T20:21:22.073Z,82.74
2022-12-28T20:23:49.769Z,82.85
2022-12-28T20:26:17.253Z,82.62
2022-12-28T20:28:44.233Z,83.13
2022-12-28T20:31:12.350Z,83.13
2022-12-28T20:33:39.030Z,82.74
2022-12-28T20:36:07.668Z,82.55
2022-12-28T20:38:34.728Z,82.23
2022-12-28T20:41:39.035Z,81.92
2022-12-28T20:44:10.553Z,81.59
2022-12-28T20:46:37.345Z,82.33
2022-12-28T20:49:04.609Z,82.57
2022-12-28T20:51:31.197Z,81.92
2022-12-28T20:53:57.891Z,82.68
2022-12-28T20:56:24.590Z,81.89
2022-12-28T20:58:51.350Z,81.93
2022-12-28T21:01:18.222Z,81.72
2022-12-28T21:03:45.071Z,82.21
2022-12-28T21:06:11.823Z,83.03
2022-12-28T21:08:38.552Z,82.71
2022-12-28T21:11:05.435Z,81.93
2022-12-28T21:13:32.058Z,82.74
2022-12-28T21:15:59.251Z,82.50
2022-12-28T21:18:26.019Z,83.06
2022-12-28T21:20:58.809Z,82.44
2022-12-28T21:23:26.224Z,83.17
2022-12-28T21:25:52.908Z,82.27
2022-12-28T21:28:19.585Z,82.77
2022-12-28T21:30:53.398Z,82.72
2022-12-28T21:33:20.019Z,82.30
2022-12-28T21:35:59.773Z,82.44
2022-12-28T21:38:26.562Z,82.53
2022-12-28T21:40:57.997Z,82.83
2022-12-28T21:43:24.635Z,81.61
2022-12-28T21:46:02.447Z,80.53
2022-12-28T21:48:33.118Z,80.96
2022-12-28T21:51:04.674Z,81.76
2022-12-28T21:53:31.361Z,81.61
2022-12-28T21:55:58.010Z,81.05
2022-12-28T21:58:24.684Z,80.74
2022-12-28T22:01:10.212Z,81.20
2022-12-28T22:03:55.389Z,79.44
2022-12-28T22:06:22.079Z,79.57
2022-12-28T22:09:07.390Z,79.06
2022-12-28T22:11:52.756Z,79.54
2022-12-28T22:14:19.454Z,79.80
2022-12-28T22:16:46.267Z,79.44
2022-12-28T22:19:13.104Z,80.13
2022-12-28T22:21:39.739Z,80.71
2022-12-28T22:24:06.558Z,79.77
2022-12-28T22:26:33.278Z,80.54
2022-12-28T22:28:59.921Z,81.67
2022-12-28T22:31:26.640Z,81.18
2022-12-28T22:33:55.036Z,80.42
2022-12-28T22:36:21.756Z,81.48
2022-12-28T22:38:48.499Z,81.67
2022-12-28T22:41:15.224Z,80.84
2022-12-28T22:43:41.911Z,80.30
2022-12-28T22:46:10.203Z,80.54
2022-12-28T22:48:37.226Z,81.46
2022-12-28T22:51:22.045Z,80.93
2022-12-28T22:53:50.065Z,81.19
2022-12-28T22:56:20.085Z,81.52
2022-12-28T22:58:47.684Z,81.48
2022-12-28T23:01:16.265Z,81.23
2022-12-28T23:03:44.473Z,81.33
2022-12-28T23:06:12.352Z,80.58
2022-12-28T23:08:39.233Z,80.71
2022-12-28T23:11:26.965Z,80.44
2022-12-28T23:13:53.588Z,80.80
2022-12-28T23:16:20.234Z,80.77
2022-12-28T23:19:05.883Z,81.25
2022-12-28T23:21:51.312Z,81.01
2022-12-28T23:24:36.543Z,82.49
2022-12-28T23:27:21.127Z,82.52
2022-12-28T23:29:47.757Z,82.27
2022-12-28T23:32:14.543Z,81.92
2022-12-28T23:34:41.218Z,81.66
2022-12-28T23:37:07.880Z,83.95
2022-12-28T23:39:34.610Z,83.61
2022-12-28T23:42:01.313Z,83.31
2022-12-28T23:44:29.227Z,83.57
2022-12-28T23:46:59.322Z,84.12
2022-12-28T23:49:26.470Z,82.92
2022-12-28T23:51:53.145Z,82.67
2022-12-28T23:54:20.119Z,82.10
2022-12-28T23:56:47.095Z,82.01
2022-12-28T23:59:13.784Z,82.18
